Time;durP1;ratioP1;P1;durP2;ratioP2;P2;SDS_P1;SDS_P2;PMS_P1;PMS_P2;Temp;Humidity;BMP_temperature;BMP_pressure;BME280_temperature;BME280_humidity;BME280_pressure;Samples;Min_cycle;Max_cycle;Signal;HPM_P1;HPM_P2
2023/05/29 00:02:16;;;;;;;;;;;;;;;14.83;60.33;92759.31;2050847;70;20434;-75
2023/05/29 00:04:41;;;;;;;;;;;;;;;14.90;59.89;92761.06;2050375;70;20057;-75
2023/05/29 00:07:44;;;;;;;;;;;;;;;14.93;58.80;92749.16;2051011;70;20058;-75
2023/05/29 00:10:11;;;;;;;;;;;;;;;14.70;60.30;92755.19;2050913;70;20063;-75
2023/05/29 00:12:37;;;;;;;;;;;;;;;14.77;60.07;92751.28;2051344;70;20058;-76
2023/05/29 00:15:06;;;;;;;;;;;;;;;14.71;61.27;92753.84;2050854;70;20145;-75
2023/05/29 00:17:32;;;;;;;;;;;;;;;14.33;62.96;92755.53;2051320;70;20098;-75
2023/05/29 00:20:20;;;;;;;;;;;;;;;14.56;61.39;92757.38;2051361;70;20046;-75
2023/05/29 00:22:50;;;;;;;;;;;;;;;14.59;60.85;92756.09;2051503;70;20089;-75
2023/05/29 00:25:16;;;;;;;;;;;;;;;14.48;61.21;92758.47;2051421;70;20173;-75
2023/05/29 00:27:42;;;;;;;;;;;;;;;14.62;60.67;92749.16;2051220;70;20193;-75
2023/05/29 00:30:07;;;;;;;;;;;;;;;14.47;61.43;92756.22;2050528;70;20092;-75
2023/05/29 00:32:33;;;;;;;;;;;;;;;14.45;61.01;92744.81;2053411;70;20074;-74
2023/05/29 00:35:00;;;;;;;;;;;;;;;14.55;60.95;92759.47;2051404;69;20114;-75
2023/05/29 00:37:26;;;;;;;;;;;;;;;14.48;61.26;92749.97;2053449;70;20050;-74
2023/05/29 00:42:55;;;;;;;;;;;;;;;14.31;62.10;92750.53;2050355;70;20058;-75
2023/05/29 00:45:20;;;;;;;;;;;;;;;14.25;62.67;92747.41;2050975;70;20053;-75
2023/05/29 00:47:46;;;;;;;;;;;;;;;14.35;62.13;92750.00;2050588;70;20066;-74
2023/05/29 00:50:16;;;;;;;;;;;;;;;14.21;61.85;92747.94;2050676;70;20463;-74
2023/05/29 00:52:42;;;;;;;;;;;;;;;13.95;63.59;92753.06;2050381;70;20045;-74
2023/05/29 00:55:08;;;;;;;;;;;;;;;14.08;62.85;92750.81;2050771;70;20438;-75
2023/05/29 00:57:35;;;;;;;;;;;;;;;14.16;62.54;92756.88;2050613;70;20490;-74
2023/05/29 01:00:04;;;;;;;;;;;;;;;14.08;62.66;92753.66;2050208;70;20162;-74
2023/05/29 01:02:31;;;;;;;;;;;;;;;13.77;64.13;92757.06;2051215;70;20047;-74
2023/05/29 01:04:57;;;;;;;;;;;;;;;13.92;63.82;92754.31;2051633;70;20113;-75
2023/05/29 01:07:22;;;;;;;;;;;;;;;13.87;63.78;92755.47;2051382;70;20130;-74
2023/05/29 01:09:48;;;;;;;;;;;;;;;13.89;63.71;92766.19;2051161;69;20058;-73
2023/05/29 01:12:22;;;;;;;;;;;;;;;13.80;64.88;92767.88;2051727;69;20046;-74
2023/05/29 01:14:53;;;;;;;;;;;;;;;13.80;64.13;92767.88;2053393;70;20055;-74
2023/05/29 01:17:29;;;;;;;;;;;;;;;13.88;63.00;92770.34;2051258;70;20074;-74
2023/05/29 01:19:55;;;;;;;;;;;;;;;13.75;64.04;92771.13;2050640;70;20125;-74
2023/05/29 01:22:39;;;;;;;;;;;;;;;13.78;63.65;92772.69;2050677;70;20062;-74
2023/05/29 01:25:10;;;;;;;;;;;;;;;13.78;64.16;92767.75;2051334;70;20051;-74
2023/05/29 01:27:38;;;;;;;;;;;;;;;13.66;64.49;92779.22;2051350;69;20078;-74
2023/05/29 01:30:05;;;;;;;;;;;;;;;13.71;63.86;92772.38;2051319;70;20399;-74
2023/05/29 01:32:31;;;;;;;;;;;;;;;13.75;63.65;92771.88;2050955;70;20046;-74
2023/05/29 01:34:56;;;;;;;;;;;;;;;13.74;62.97;92767.53;2051480;70;20063;-74
2023/05/29 01:37:23;;;;;;;;;;;;;;;13.67;64.00;92768.63;2051507;70;20613;-75
2023/05/29 01:39:55;;;;;;;;;;;;;;;13.58;64.34;92761.09;2051295;70;20564;-74
2023/05/29 01:42:21;;;;;;;;;;;;;;;13.57;64.59;92760.34;2051147;70;20154;-74
2023/05/29 01:44:47;;;;;;;;;;;;;;;13.55;64.36;92762.34;2051419;69;20062;-74
2023/05/29 01:47:15;;;;;;;;;;;;;;;13.54;64.16;92755.94;2051424;69;20133;-73
2023/05/29 01:49:42;;;;;;;;;;;;;;;13.45;64.46;92757.63;2051623;70;20495;-74
2023/05/29 01:52:07;;;;;;;;;;;;;;;13.27;65.74;92764.44;2050488;70;20054;-73
2023/05/29 01:54:33;;;;;;;;;;;;;;;13.24;65.94;92766.44;2051599;70;20059;-74
2023/05/29 01:56:59;;;;;;;;;;;;;;;13.30;64.90;92769.59;2050860;70;20145;-74
2023/05/29 01:59:25;;;;;;;;;;;;;;;13.27;65.62;92768.00;2050717;70;20499;-74
2023/05/29 02:01:50;;;;;;;;;;;;;;;13.35;64.73;92765.59;2053653;70;20047;-74
2023/05/29 02:04:15;;;;;;;;;;;;;;;13.39;64.41;92770.75;2051510;69;20602;-74
2023/05/29 02:06:41;;;;;;;;;;;;;;;13.30;64.94;92766.75;2050927;70;20060;-74
2023/05/29 02:09:06;;;;;;;;;;;;;;;13.29;64.43;92773.78;2050875;70;20047;-74
2023/05/29 02:11:32;;;;;;;;;;;;;;;13.19;65.05;92767.53;2050785;70;20058;-74
2023/05/29 02:13:57;;;;;;;;;;;;;;;13.18;65.56;92764.00;2051173;69;20062;-74
2023/05/29 02:16:23;;;;;;;;;;;;;;;13.26;64.68;92768.66;2051395;70;20067;-74
2023/05/29 02:18:48;;;;;;;;;;;;;;;13.30;64.38;92768.84;2050884;70;20098;-74
2023/05/29 02:21:14;;;;;;;;;;;;;;;13.23;64.77;92762.13;2053684;70;20049;-73
2023/05/29 02:23:40;;;;;;;;;;;;;;;13.25;64.61;92767.19;2051362;70;20112;-74
2023/05/29 02:26:05;;;;;;;;;;;;;;;13.19;64.23;92768.31;2051481;70;20480;-74
2023/05/29 02:28:31;;;;;;;;;;;;;;;13.21;63.97;92764.84;2051343;70;20086;-73
2023/05/29 02:30:56;;;;;;;;;;;;;;;12.77;67.28;92763.22;2050933;70;20093;-74
2023/05/29 02:33:23;;;;;;;;;;;;;;;12.87;66.38;92764.47;2051400;69;20153;-74
2023/05/29 02:35:49;;;;;;;;;;;;;;;13.15;64.90;92761.72;2051293;70;20075;-74
2023/05/29 02:38:15;;;;;;;;;;;;;;;13.05;65.13;92761.16;2051445;70;20054;-74
2023/05/29 02:40:41;;;;;;;;;;;;;;;12.97;65.76;92764.31;2050607;70;20051;-74
2023/05/29 02:43:08;;;;;;;;;;;;;;;13.00;64.78;92770.78;2051206;70;20043;-74
2023/05/29 02:45:35;;;;;;;;;;;;;;;12.90;66.06;92768.88;2051113;69;20053;-74
2023/05/29 02:48:00;;;;;;;;;;;;;;;12.89;65.43;92770.25;2050774;70;20071;-74
2023/05/29 02:50:26;;;;;;;;;;;;;;;13.00;64.97;92767.97;2051217;70;20054;-74
2023/05/29 02:52:51;;;;;;;;;;;;;;;12.95;65.23;92767.00;2051209;70;20050;-74
2023/05/29 02:55:18;;;;;;;;;;;;;;;12.85;65.52;92763.66;2051592;70;20050;-74
2023/05/29 02:57:44;;;;;;;;;;;;;;;12.91;65.11;92764.69;2050999;70;20157;-74
2023/05/29 03:00:10;;;;;;;;;;;;;;;12.88;65.74;92768.06;2050574;70;20059;-74
2023/05/29 03:02:36;;;;;;;;;;;;;;;12.81;65.76;92752.13;2051374;70;20086;-74
2023/05/29 03:05:04;;;;;;;;;;;;;;;12.81;65.62;92755.69;2051364;69;20146;-74
2023/05/29 03:07:29;;;;;;;;;;;;;;;12.70;66.46;92757.25;2050857;70;20202;-74
2023/05/29 03:09:56;;;;;;;;;;;;;;;12.78;65.84;92759.75;2050949;70;20047;-74
2023/05/29 03:12:22;;;;;;;;;;;;;;;12.83;66.07;92760.69;2051313;70;20054;-74
2023/05/29 03:14:47;;;;;;;;;;;;;;;12.75;65.86;92765.94;2050345;70;20051;-74
2023/05/29 03:17:14;;;;;;;;;;;;;;;12.66;66.29;92767.59;2050744;70;20459;-74
2023/05/29 03:19:39;;;;;;;;;;;;;;;12.70;66.02;92771.38;2050778;70;20093;-74
2023/05/29 03:22:06;;;;;;;;;;;;;;;12.59;66.96;92768.59;2051254;70;20441;-74
2023/05/29 03:24:35;;;;;;;;;;;;;;;12.60;66.16;92772.88;2050506;70;20498;-74
2023/05/29 03:27:00;;;;;;;;;;;;;;;12.79;65.76;92769.00;2050733;70;20146;-73
2023/05/29 03:29:26;;;;;;;;;;;;;;;12.66;66.73;92762.69;2050349;70;20060;-73
2023/05/29 03:31:53;;;;;;;;;;;;;;;12.39;68.41;92759.78;2050690;70;20608;-74
2023/05/29 03:34:25;;;;;;;;;;;;;;;12.61;66.74;92774.38;2050763;70;20065;-74
2023/05/29 03:36:57;;;;;;;;;;;;;;;12.69;65.52;92769.91;2050976;70;20055;-74
2023/05/29 03:39:24;;;;;;;;;;;;;;;12.55;66.41;92771.22;2050664;70;20064;-74
2023/05/29 03:41:50;;;;;;;;;;;;;;;12.62;66.48;92770.19;2051521;70;20052;-73
2023/05/29 03:44:16;;;;;;;;;;;;;;;12.58;66.03;92776.34;2053324;70;20059;-73
2023/05/29 03:46:44;;;;;;;;;;;;;;;12.71;65.93;92766.44;2050760;70;20053;-73
2023/05/29 03:49:10;;;;;;;;;;;;;;;12.76;65.37;92770.22;2051212;70;20059;-74
2023/05/29 03:51:36;;;;;;;;;;;;;;;12.72;65.60;92765.09;2051693;70;20049;-73
2023/05/29 03:54:03;;;;;;;;;;;;;;;12.79;65.08;92774.63;2054062;70;20575;-74
2023/05/29 03:56:28;;;;;;;;;;;;;;;12.80;65.01;92776.09;2053829;70;20744;-74
2023/05/29 03:58:54;;;;;;;;;;;;;;;12.77;65.13;92772.41;2048056;70;20146;-73
2023/05/29 04:01:20;;;;;;;;;;;;;;;12.79;65.43;92771.81;2050980;70;20467;-74
2023/05/29 04:03:46;;;;;;;;;;;;;;;12.74;65.83;92770.84;2051255;70;20043;-75
2023/05/29 04:06:12;;;;;;;;;;;;;;;12.83;65.00;92772.75;2053906;70;20047;-74
2023/05/29 04:08:40;;;;;;;;;;;;;;;12.84;65.31;92771.41;2051232;70;20442;-73
2023/05/29 04:11:05;;;;;;;;;;;;;;;12.84;65.17;92777.03;2051268;70;20070;-74
2023/05/29 04:13:31;;;;;;;;;;;;;;;12.89;64.78;92775.91;2051922;69;20055;-74
2023/05/29 04:15:56;;;;;;;;;;;;;;;12.95;64.57;92778.31;2051139;70;20049;-74
2023/05/29 04:18:22;;;;;;;;;;;;;;;12.95;63.49;92781.13;2048491;70;20051;-74
2023/05/29 04:20:48;;;;;;;;;;;;;;;12.96;64.13;92782.59;2051261;70;20125;-74
2023/05/29 04:23:13;;;;;;;;;;;;;;;12.92;64.55;92779.56;2051243;70;20138;-74
2023/05/29 04:25:39;;;;;;;;;;;;;;;12.89;65.03;92775.91;2051213;70;20055;-74
2023/05/29 04:28:04;;;;;;;;;;;;;;;13.01;64.48;92789.19;2048098;70;20039;-74
2023/05/29 04:30:33;;;;;;;;;;;;;;;12.99;64.02;92792.66;2053937;70;20083;-73
2023/05/29 04:32:59;;;;;;;;;;;;;;;13.02;63.75;92785.78;2051133;70;20051;-74
2023/05/29 04:35:28;;;;;;;;;;;;;;;12.85;64.54;92798.28;2051073;70;20422;-74
2023/05/29 04:37:59;;;;;;;;;;;;;;;13.02;64.02;92787.88;2051030;70;20047;-74
2023/05/29 04:40:33;;;;;;;;;;;;;;;12.78;64.29;92795.75;2048313;70;20055;-74
2023/05/29 04:43:02;;;;;;;;;;;;;;;12.94;63.19;92794.53;2051421;69;20055;-74
2023/05/29 04:45:36;;;;;;;;;;;;;;;13.04;63.35;92800.00;2051217;70;20047;-74
2023/05/29 04:48:04;;;;;;;;;;;;;;;13.19;63.77;92798.66;2048407;70;20053;-74
2023/05/29 04:50:31;;;;;;;;;;;;;;;13.12;64.20;92800.44;2051208;70;20057;-74
2023/05/29 04:52:57;;;;;;;;;;;;;;;13.06;63.56;92794.47;2051205;70;20051;-74
2023/05/29 04:55:23;;;;;;;;;;;;;;;13.14;63.85;92796.97;2051663;70;20073;-74
2023/05/29 04:57:48;;;;;;;;;;;;;;;13.22;63.29;92797.44;2051429;70;20055;-73
2023/05/29 05:00:14;;;;;;;;;;;;;;;13.20;63.31;92800.13;2050878;70;20380;-73
2023/05/29 05:02:42;;;;;;;;;;;;;;;13.17;64.07;92799.28;2051693;70;20158;-74
2023/05/29 05:05:08;;;;;;;;;;;;;;;13.23;64.87;92799.63;2051596;70;20189;-73
2023/05/29 05:07:33;;;;;;;;;;;;;;;13.20;63.02;92802.97;2053800;70;20594;-74
2023/05/29 05:13:29;;;;;;;;;;;;;;;13.27;62.45;92795.53;2051468;70;20139;-73
2023/05/29 05:15:54;;;;;;;;;;;;;;;13.10;63.31;92794.69;2050933;70;20054;-73
2023/05/29 05:18:20;;;;;;;;;;;;;;;13.39;63.21;92794.09;2051073;70;20059;-73
2023/05/29 05:20:54;;;;;;;;;;;;;;;13.47;63.40;92797.34;2051087;70;20506;-73
2023/05/29 05:23:20;;;;;;;;;;;;;;;13.60;63.08;92804.34;2051018;70;20058;-74
2023/05/29 05:25:47;;;;;;;;;;;;;;;13.62;62.07;92807.28;2051079;70;20059;-73
2023/05/29 05:28:13;;;;;;;;;;;;;;;13.56;62.45;92803.41;2051541;69;20074;-73
2023/05/29 05:30:44;;;;;;;;;;;;;;;13.63;63.17;92800.25;2050997;70;20433;-74
2023/05/29 05:33:09;;;;;;;;;;;;;;;13.71;63.17;92797.13;2050971;70;20486;-74
2023/05/29 05:35:36;;;;;;;;;;;;;;;13.78;62.94;92804.53;2050904;70;20475;-72
2023/05/29 05:38:03;;;;;;;;;;;;;;;13.49;63.45;92799.53;2051019;70;20097;-72
2023/05/29 05:40:28;;;;;;;;;;;;;;;13.55;63.19;92796.28;2051099;70;20062;-73
2023/05/29 05:42:59;;;;;;;;;;;;;;;13.47;63.56;92797.34;2051043;70;20129;-73
2023/05/29 05:45:45;;;;;;;;;;;;;;;13.67;63.78;92799.75;2051339;70;20054;-74
2023/05/29 05:48:11;;;;;;;;;;;;;;;13.80;63.11;92798.25;2051345;70;20059;-73
2023/05/29 05:50:37;;;;;;;;;;;;;;;13.84;63.09;92798.47;2051035;70;20059;-73
2023/05/29 05:56:32;;;;;;;;;;;;;;;14.05;62.67;92800.19;2051629;70;20543;-73
2023/05/29 05:58:57;;;;;;;;;;;;;;;14.06;63.39;92799.56;2051196;70;20475;-74
2023/05/29 06:01:23;;;;;;;;;;;;;;;13.93;62.28;92803.91;2053302;70;20063;-76
2023/05/29 06:03:49;;;;;;;;;;;;;;;14.09;61.92;92795.47;2053385;70;20084;-74
2023/05/29 06:06:16;;;;;;;;;;;;;;;14.11;60.43;92789.94;2050770;70;20070;-74
2023/05/29 06:08:43;;;;;;;;;;;;;;;14.25;61.87;92789.88;2051034;70;20490;-74
2023/05/29 06:11:09;;;;;;;;;;;;;;;14.32;62.85;92794.47;2051347;70;20141;-74
2023/05/29 06:13:37;;;;;;;;;;;;;;;14.31;64.15;92787.34;2050875;70;20411;-74
2023/05/29 06:16:07;;;;;;;;;;;;;;;14.44;63.00;92788.66;2051141;70;20059;-74
2023/05/29 06:22:05;;;;;;;;;;;;;;;14.70;63.15;92786.34;2051236;70;20098;-76
2023/05/29 06:24:33;;;;;;;;;;;;;;;14.73;63.46;92788.66;2050606;70;20055;-74
2023/05/29 06:27:01;;;;;;;;;;;;;;;14.83;63.45;92782.72;2050942;70;20061;-74
2023/05/29 06:29:28;;;;;;;;;;;;;;;14.88;63.42;92787.22;2050509;70;20078;-74
2023/05/29 06:31:53;;;;;;;;;;;;;;;15.09;63.44;92785.31;2050993;70;20086;-74
2023/05/29 06:34:19;;;;;;;;;;;;;;;15.14;61.70;92793.34;2050945;70;20047;-74
2023/05/29 06:36:45;;;;;;;;;;;;;;;15.28;61.87;92787.59;2051088;70;20070;-74
2023/05/29 06:39:11;;;;;;;;;;;;;;;15.38;61.77;92793.72;2053647;70;20487;-74
2023/05/29 06:41:38;;;;;;;;;;;;;;;15.44;60.73;92794.00;2050984;70;20118;-73
2023/05/29 06:44:05;;;;;;;;;;;;;;;15.50;61.31;92794.25;2050782;70;20054;-73
2023/05/29 06:46:31;;;;;;;;;;;;;;;15.59;61.88;92797.47;2051379;70;20047;-74
2023/05/29 06:48:58;;;;;;;;;;;;;;;15.66;61.80;92790.69;2050805;70;20079;-73
2023/05/29 06:51:23;;;;;;;;;;;;;;;15.82;61.09;92788.56;2048160;70;20149;-74
2023/05/29 06:54:12;;;;;;;;;;;;;;;15.95;60.10;92789.81;2050288;70;20492;-73
2023/05/29 06:56:38;;;;;;;;;;;;;;;16.11;59.66;92787.66;2048250;70;20154;-74
2023/05/29 06:59:04;;;;;;;;;;;;;;;16.21;58.93;92790.19;2051375;70;20150;-74
2023/05/29 07:04:59;;;;;;;;;;;;;;;16.39;59.93;92793.75;2051279;70;20090;-73
2023/05/29 07:07:26;;;;;;;;;;;;;;;16.42;59.61;92786.06;2048148;70;20062;-73
2023/05/29 07:09:51;;;;;;;;;;;;;;;16.56;60.48;92785.91;2050914;70;20055;-73
2023/05/29 07:12:16;;;;;;;;;;;;;;;16.61;59.80;92790.38;2048113;70;20086;-74
2023/05/29 07:14:44;;;;;;;;;;;;;;;16.71;59.65;92787.91;2050546;70;20054;-73
2023/05/29 07:17:09;;;;;;;;;;;;;;;16.56;56.00;92785.91;2050673;70;20382;-74
2023/05/29 07:19:36;;;;;;;;;;;;;;;16.70;55.45;92786.47;2050822;70;20051;-74
2023/05/29 07:22:03;;;;;;;;;;;;;;;16.81;58.93;92782.66;2050876;70;20121;-75
2023/05/29 07:24:29;;;;;;;;;;;;;;;17.02;57.56;92781.34;2053577;70;20050;-74
2023/05/29 07:26:55;;;;;;;;;;;;;;;17.08;57.38;92786.53;2050826;70;20483;-74
2023/05/29 07:29:23;;;;;;;;;;;;;;;17.26;57.06;92776.56;2050765;70;20053;-74
2023/05/29 07:31:49;;;;;;;;;;;;;;;17.21;53.28;92774.94;2051248;70;20081;-74
2023/05/29 07:34:15;;;;;;;;;;;;;;;17.42;54.23;92776.44;2050809;70;20055;-74
2023/05/29 07:37:00;;;;;;;;;;;;;;;17.47;53.52;92778.03;2051373;70;20061;-74
2023/05/29 07:39:27;;;;;;;;;;;;;;;17.70;52.99;92778.84;2051311;70;20062;-75
2023/05/29 07:41:53;;;;;;;;;;;;;;;17.76;52.74;92774.13;2050857;70;20114;-74
2023/05/29 07:44:19;;;;;;;;;;;;;;;17.64;51.80;92772.94;2053524;70;20149;-74
2023/05/29 07:46:46;;;;;;;;;;;;;;;17.61;50.78;92768.56;2050861;70;20133;-74
2023/05/29 07:49:30;;;;;;;;;;;;;;;17.79;50.26;92769.25;2048626;70;20089;-75
2023/05/29 07:51:55;;;;;;;;;;;;;;;18.14;50.50;92774.00;2050907;70;20146;-73
2023/05/29 07:54:22;;;;;;;;;;;;;;;18.24;51.59;92768.66;2053751;70;20043;-75
2023/05/29 07:56:49;;;;;;;;;;;;;;;18.22;50.68;92765.72;2048150;70;20478;-74
2023/05/29 07:59:16;;;;;;;;;;;;;;;18.49;50.31;92767.31;2050378;70;20226;-74
2023/05/29 08:01:45;;;;;;;;;;;;;;;18.61;50.77;92761.31;2050741;70;20059;-74
2023/05/29 08:04:28;;;;;;;;;;;;;;;18.68;49.24;92759.34;2050899;69;20153;-75
2023/05/29 08:06:54;;;;;;;;;;;;;;;19.01;48.12;92759.03;2050696;70;20173;-76
2023/05/29 08:09:20;;;;;;;;;;;;;;;19.51;48.23;92764.00;2050652;70;20043;-73
2023/05/29 08:11:46;;;;;;;;;;;;;;;19.90;47.05;92759.44;2048056;70;20047;-75
2023/05/29 08:14:12;;;;;;;;;;;;;;;20.28;45.21;92766.16;2051311;70;20058;-77
2023/05/29 08:16:39;;;;;;;;;;;;;;;20.37;44.95;92764.22;2053460;70;20047;-75
2023/05/29 08:19:05;;;;;;;;;;;;;;;20.82;45.92;92756.78;2051500;70;20049;-76
2023/05/29 08:21:31;;;;;;;;;;;;;;;21.06;44.52;92751.59;2051053;70;20046;-74
2023/05/29 08:23:58;;;;;;;;;;;;;;;20.96;44.53;92759.25;2051796;70;20054;-75
2023/05/29 08:26:25;;;;;;;;;;;;;;;21.69;43.87;92748.69;2051312;70;20054;-76
2023/05/29 08:28:50;;;;;;;;;;;;;;;21.54;42.72;92751.25;2050693;70;20050;-74
2023/05/29 08:31:16;;;;;;;;;;;;;;;21.96;41.50;92753.53;2051747;70;20051;-77
2023/05/29 08:33:42;;;;;;;;;;;;;;;21.47;41.23;92749.66;2051741;70;20047;-78
2023/05/29 08:36:08;;;;;;;;;;;;;;;21.96;42.34;92753.53;2051713;69;20114;-77
2023/05/29 08:38:34;;;;;;;;;;;;;;;22.13;40.74;92742.38;2051346;70;20066;-79
2023/05/29 08:41:00;;;;;;;;;;;;;;;22.50;40.21;92746.63;2051849;69;20117;-80
2023/05/29 08:43:29;;;;;;;;;;;;;;;22.90;39.64;92746.59;2050846;70;20136;-76
2023/05/29 08:45:58;;;;;;;;;;;;;;;22.66;38.85;92746.91;2051855;69;20097;-76
2023/05/29 08:48:25;;;;;;;;;;;;;;;22.66;40.77;92735.41;2051157;70;20128;-77
2023/05/29 08:50:52;;;;;;;;;;;;;;;23.39;39.20;92735.09;2051771;70;20047;-78
2023/05/29 08:53:19;;;;;;;;;;;;;;;23.96;37.71;92735.81;2051780;70;20061;-74
2023/05/29 08:55:46;;;;;;;;;;;;;;;24.12;37.97;92730.25;2051778;70;20066;-77
2023/05/29 08:58:13;;;;;;;;;;;;;;;24.77;38.00;92727.31;2051171;70;20055;-76
2023/05/29 09:00:40;;;;;;;;;;;;;;;24.38;37.75;92726.25;2051719;70;20047;-76
2023/05/29 09:03:06;;;;;;;;;;;;;;;24.39;37.87;92725.53;2051776;69;20043;-75
2023/05/29 09:05:32;;;;;;;;;;;;;;;24.84;37.88;92723.06;2051758;70;20046;-77
2023/05/29 09:07:58;;;;;;;;;;;;;;;25.05;37.13;92721.75;2051720;69;20050;-75
2023/05/29 09:10:25;;;;;;;;;;;;;;;25.26;36.70;92724.81;2051654;70;20066;-75
2023/05/29 09:12:53;;;;;;;;;;;;;;;25.84;35.91;92715.03;2051729;70;20058;-77
2023/05/29 09:15:20;;;;;;;;;;;;;;;25.84;34.09;92717.91;2052358;70;20058;-81
2023/05/29 09:18:04;;;;;;;;;;;;;;;26.59;33.97;92720.31;2051773;70;20682;-74
2023/05/29 09:20:30;;;;;;;;;;;;;;;25.60;34.50;92704.81;2051431;69;20046;-78
2023/05/29 09:23:05;;;;;;;;;;;;;;;26.06;34.21;92711.53;2051384;70;20117;-76
2023/05/29 09:25:32;;;;;;;;;;;;;;;26.18;34.53;92716.63;2051740;70;20453;-75
2023/05/29 09:27:57;;;;;;;;;;;;;;;25.60;34.86;92716.34;2051573;70;20054;-79
2023/05/29 09:30:36;;;;;;;;;;;;;;;26.09;36.36;92710.09;2051543;70;20054;-77
2023/05/29 09:33:03;;;;;;;;;;;;;;;26.77;35.07;92708.78;2051675;70;20117;-78
2023/05/29 09:35:39;;;;;;;;;;;;;;;26.25;34.45;92715.16;2051695;69;20047;-77
2023/05/29 09:38:05;;;;;;;;;;;;;;;26.71;34.41;92702.28;2051660;70;20138;-77
2023/05/29 09:40:35;;;;;;;;;;;;;;;27.58;33.81;92707.25;2051573;70;20483;-77
2023/05/29 09:43:10;;;;;;;;;;;;;;;27.75;33.73;92708.69;2051164;70;20058;-77
2023/05/29 09:45:37;;;;;;;;;;;;;;;27.23;34.14;92700.84;2051576;70;20150;-74
2023/05/29 09:48:03;;;;;;;;;;;;;;;27.93;33.63;92705.00;2051543;70;20051;-75
2023/05/29 09:50:30;;;;;;;;;;;;;;;28.45;32.98;92702.59;2051513;70;20129;-74
2023/05/29 09:52:56;;;;;;;;;;;;;;;28.44;31.48;92704.78;2051538;69;20050;-74
2023/05/29 09:55:23;;;;;;;;;;;;;;;29.11;31.81;92703.59;2051417;70;20053;-75
2023/05/29 09:57:49;;;;;;;;;;;;;;;29.31;30.95;92700.50;2051658;70;20054;-75
2023/05/29 10:00:16;;;;;;;;;;;;;;;29.07;30.68;92694.94;2050996;70;20107;-75
2023/05/29 10:02:41;;;;;;;;;;;;;;;28.56;30.12;92693.13;2051598;70;20055;-75
2023/05/29 10:05:09;;;;;;;;;;;;;;;28.09;31.42;92683.97;2051617;70;20054;-75
2023/05/29 10:07:43;;;;;;;;;;;;;;;29.65;29.80;92677.72;2051757;69;20082;-75
2023/05/29 10:10:10;;;;;;;;;;;;;;;29.94;29.45;92675.91;2051702;70;20090;-76
2023/05/29 10:12:38;;;;;;;;;;;;;;;29.50;28.36;92669.13;2052526;69;20051;-79
2023/05/29 10:15:06;;;;;;;;;;;;;;;30.82;27.70;92675.47;2053044;70;20427;-78
2023/05/29 10:17:35;;;;;;;;;;;;;;;30.71;25.17;92674.19;2051641;70;20051;-75
2023/05/29 10:20:02;;;;;;;;;;;;;;;31.67;24.91;92666.03;2051761;70;20062;-76
2023/05/29 10:22:30;;;;;;;;;;;;;;;31.95;26.06;92656.78;2051586;70;20499;-75
2023/05/29 10:24:56;;;;;;;;;;;;;;;31.04;26.02;92659.13;2051237;70;20058;-76
2023/05/29 10:27:21;;;;;;;;;;;;;;;32.48;25.43;92660.75;2051577;70;20055;-75
2023/05/29 10:29:58;;;;;;;;;;;;;;;32.91;24.09;92659.81;2051665;69;20051;-75
2023/05/29 10:32:32;;;;;;;;;;;;;;;33.06;22.37;92655.78;2051583;70;20471;-75
2023/05/29 10:35:08;;;;;;;;;;;;;;;34.10;24.35;92658.19;2051420;70;20138;-75
2023/05/29 10:37:35;;;;;;;;;;;;;;;35.76;20.80;92662.50;2051406;70;20093;-76
2023/05/29 10:40:06;;;;;;;;;;;;;;;36.06;19.99;92651.91;2051498;70;20055;-76
2023/05/29 10:42:38;;;;;;;;;;;;;;;35.39;19.12;92652.00;2051581;70;20117;-78
2023/05/29 10:45:05;;;;;;;;;;;;;;;36.73;20.25;92658.19;2051466;70;20161;-76
2023/05/29 10:47:30;;;;;;;;;;;;;;;39.26;18.33;92652.41;2051706;70;20058;-75
2023/05/29 10:49:59;;;;;;;;;;;;;;;40.57;17.48;92658.28;2051691;69;20478;-77
2023/05/29 10:52:25;;;;;;;;;;;;;;;40.41;16.46;92650.97;2051517;69;20121;-75
2023/05/29 10:54:52;;;;;;;;;;;;;;;41.67;15.77;92660.28;2051312;70;20055;-76
2023/05/29 10:57:18;;;;;;;;;;;;;;;41.91;16.67;92664.78;2051446;70;20062;-77
2023/05/29 10:59:44;;;;;;;;;;;;;;;40.76;16.78;92655.75;2051446;69;20513;-80
2023/05/29 11:02:10;;;;;;;;;;;;;;;42.55;15.96;92652.81;2051543;70;20051;-77
2023/05/29 11:04:36;;;;;;;;;;;;;;;43.94;14.31;92649.84;2051493;70;20491;-77
2023/05/29 11:07:06;;;;;;;;;;;;;;;43.49;15.01;92655.78;2051624;70;20090;-77
2023/05/29 11:09:39;;;;;;;;;;;;;;;40.94;15.92;92636.31;2051442;69;20157;-79
2023/05/29 11:12:12;;;;;;;;;;;;;;;45.40;13.28;92650.06;2051499;70;20535;-77
2023/05/29 11:14:45;;;;;;;;;;;;;;;43.97;14.13;92642.94;2051166;69;20129;-78
2023/05/29 11:17:30;;;;;;;;;;;;;;;40.74;15.37;92637.47;2051290;69;20051;-77
2023/05/29 11:19:56;;;;;;;;;;;;;;;36.95;19.19;92627.31;2051493;70;20047;-77
2023/05/29 11:22:23;;;;;;;;;;;;;;;36.93;17.60;92621.53;2051483;70;20046;-77
2023/05/29 11:24:51;;;;;;;;;;;;;;;38.24;18.82;92621.84;2051044;70;20117;-77
2023/05/29 11:27:18;;;;;;;;;;;;;;;41.53;15.31;92638.19;2051391;70;20063;-77
2023/05/29 11:29:45;;;;;;;;;;;;;;;36.19;18.61;92619.94;2051417;70;20047;-77
2023/05/29 11:32:14;;;;;;;;;;;;;;;33.50;21.85;92594.88;2051158;70;20089;-77
2023/05/29 11:34:41;;;;;;;;;;;;;;;37.22;18.96;92605.69;2051271;70;20594;-77
2023/05/29 11:37:06;;;;;;;;;;;;;;;35.12;21.09;92602.44;2051444;70;20137;-77
2023/05/29 11:39:35;;;;;;;;;;;;;;;39.50;17.46;92610.00;2051365;70;20154;-78
2023/05/29 11:42:01;;;;;;;;;;;;;;;42.07;15.78;92622.44;2051469;70;20149;-77
2023/05/29 11:44:27;;;;;;;;;;;;;;;42.25;15.06;92626.53;2051316;70;20043;-79
2023/05/29 11:47:04;;;;;;;;;;;;;;;42.01;14.76;92613.22;2050872;70;20460;-78
2023/05/29 11:49:33;;;;;;;;;;;;;;;40.75;15.25;92610.06;2051139;70;20070;-78
2023/05/29 11:52:14;;;;;;;;;;;;;;;43.64;15.34;92617.72;2050776;70;20054;-80
2023/05/29 11:54:46;;;;;;;;;;;;;;;43.51;14.94;92614.88;2051450;70;20499;-78
2023/05/29 11:57:19;;;;;;;;;;;;;;;40.12;17.09;92604.63;2050883;70;20509;-78
2023/05/29 11:59:46;;;;;;;;;;;;;;;39.80;16.02;92595.25;2050753;70;20105;-79
2023/05/29 12:02:12;;;;;;;;;;;;;;;33.16;21.15;92576.06;2054035;70;20090;-78
2023/05/29 12:04:39;;;;;;;;;;;;;;;36.14;18.70;92573.22;2053475;70;20054;-76
2023/05/29 12:07:20;;;;;;;;;;;;;;;38.12;17.31;92576.81;2051635;70;20063;-77
2023/05/29 12:09:47;;;;;;;;;;;;;;;35.50;20.58;92579.94;2051870;69;20141;-77
2023/05/29 12:12:13;;;;;;;;;;;;;;;36.76;19.56;92595.03;2051885;69;20101;-76
2023/05/29 12:14:38;;;;;;;;;;;;;;;41.43;15.90;92597.44;2051824;70;20497;-77
2023/05/29 12:17:04;;;;;;;;;;;;;;;33.86;19.85;92577.81;2051943;70;20161;-77
2023/05/29 12:19:32;;;;;;;;;;;;;;;34.11;19.57;92572.00;2051881;69;20094;-77
2023/05/29 12:21:58;;;;;;;;;;;;;;;35.09;19.58;92571.84;2051817;70;20511;-77
2023/05/29 12:24:23;;;;;;;;;;;;;;;35.92;18.89;92568.19;2051768;70;20050;-77
2023/05/29 12:26:49;;;;;;;;;;;;;;;36.49;18.42;92568.28;2051833;70;20427;-77
2023/05/29 12:29:14;;;;;;;;;;;;;;;35.81;18.73;92559.06;2051697;70;20434;-77
2023/05/29 12:31:41;;;;;;;;;;;;;;;33.80;20.19;92572.16;2051891;69;20121;-77
2023/05/29 12:34:10;;;;;;;;;;;;;;;34.73;19.51;92559.84;2051846;70;20146;-77
2023/05/29 12:36:36;;;;;;;;;;;;;;;34.69;19.54;92560.00;2051188;70;20051;-78
2023/05/29 12:39:05;;;;;;;;;;;;;;;33.04;20.32;92559.63;2051514;70;20113;-78
2023/05/29 12:41:34;;;;;;;;;;;;;;;30.79;22.30;92557.84;2051809;69;20051;-77
2023/05/29 12:44:01;;;;;;;;;;;;;;;31.80;20.87;92554.47;2051683;69;20061;-77
2023/05/29 12:46:27;;;;;;;;;;;;;;;32.38;20.68;92554.66;2051914;69;20043;-76
2023/05/29 12:48:56;;;;;;;;;;;;;;;31.68;21.60;92548.19;2051727;70;20104;-77
2023/05/29 12:51:25;;;;;;;;;;;;;;;30.87;22.24;92551.16;2051907;70;20085;-76
2023/05/29 12:53:50;;;;;;;;;;;;;;;30.16;22.52;92550.13;2051834;69;20051;-77
2023/05/29 12:56:16;;;;;;;;;;;;;;;30.00;23.39;92545.25;2051833;69;20050;-77
2023/05/29 12:58:42;;;;;;;;;;;;;;;30.74;22.92;92547.03;2051669;70;20047;-77
2023/05/29 13:01:12;;;;;;;;;;;;;;;29.19;23.59;92555.72;2051825;70;20047;-77
2023/05/29 13:03:38;;;;;;;;;;;;;;;29.83;23.35;92544.78;2051770;70;20055;-77
2023/05/29 13:09:31;;;;;;;;;;;;;;;30.19;24.07;92547.91;2051734;70;20427;-77
2023/05/29 13:11:57;;;;;;;;;;;;;;;29.63;24.15;92539.22;2051770;69;20056;-76